sensor_id;sensor_type;location;lat;lon;timestamp;pressure;altitude;pressure_sealevel;temperature;humidity
57094;BME280;42970;50.996;3.706;2024-03-07T00:00:10;113162.81;;;-146.65;100.00
57094;BME280;42970;50.996;3.706;2024-03-07T00:02:43;113162.81;;;-146.65;100.00
57094;BME280;42970;50.996;3.706;2024-03-07T00:05:08;113162.81;;;-146.65;100.00
57094;BME280;42970;50.996;3.706;2024-03-07T00:07:34;113162.81;;;-146.65;100.00
57094;BME280;42970;50.996;3.706;2024-03-07T00:10:02;113162.81;;;-146.65;100.00
57094;BME280;42970;50.996;3.706;2024-03-07T00:12:28;113162.81;;;-146.65;100.00
57094;BME280;42970;50.996;3.706;2024-03-07T00:14:53;113162.81;;;-146.65;100.00
57094;BME280;42970;50.996;3.706;2024-03-07T00:17:19;113162.81;;;-146.65;100.00
57094;BME280;42970;50.996;3.706;2024-03-07T00:19:44;113162.81;;;-146.65;100.00
57094;BME280;42970;50.996;3.706;2024-03-07T00:22:11;113162.81;;;-146.65;100.00
57094;BME280;42970;50.996;3.706;2024-03-07T00:24:36;113162.81;;;-146.65;100.00
57094;BME280;42970;50.996;3.706;2024-03-07T00:27:03;113162.81;;;-146.65;100.00
57094;BME280;42970;50.996;3.706;2024-03-07T00:29:28;113162.81;;;-146.65;100.00
57094;BME280;42970;50.996;3.706;2024-03-07T00:31:54;113162.81;;;-146.65;100.00
57094;BME280;42970;50.996;3.706;2024-03-07T00:34:19;113162.81;;;-146.65;100.00
57094;BME280;42970;50.996;3.706;2024-03-07T00:36:46;113162.81;;;-146.65;100.00
57094;BME280;42970;50.996;3.706;2024-03-07T00:39:11;113162.81;;;-146.65;100.00
57094;BME280;42970;50.996;3.706;2024-03-07T00:41:40;113162.81;;;-146.65;100.00
57094;BME280;42970;50.996;3.706;2024-03-07T00:44:06;113162.81;;;-146.65;100.00
57094;BME280;42970;50.996;3.706;2024-03-07T00:46:33;113162.81;;;-146.65;100.00
57094;BME280;42970;50.996;3.706;2024-03-07T00:48:59;113162.81;;;-146.65;100.00
57094;BME280;42970;50.996;3.706;2024-03-07T00:51:25;113162.81;;;-146.65;100.00
57094;BME280;42970;50.996;3.706;2024-03-07T00:53:50;113162.81;;;-146.65;100.00
57094;BME280;42970;50.996;3.706;2024-03-07T00:56:16;113162.81;;;-146.65;100.00
57094;BME280;42970;50.996;3.706;2024-03-07T00:58:41;113162.81;;;-146.65;100.00
57094;BME280;42970;50.996;3.706;2024-03-07T01:01:06;113162.81;;;-146.65;100.00
57094;BME280;42970;50.996;3.706;2024-03-07T01:03:31;113162.81;;;-146.65;100.00
57094;BME280;42970;50.996;3.706;2024-03-07T01:05:57;113162.81;;;-146.65;100.00
57094;BME280;42970;50.996;3.706;2024-03-07T01:08:22;113162.81;;;-146.65;100.00
57094;BME280;42970;50.996;3.706;2024-03-07T01:10:47;113162.81;;;-146.65;100.00
57094;BME280;42970;50.996;3.706;2024-03-07T01:13:13;113162.81;;;-146.65;100.00
57094;BME280;42970;50.996;3.706;2024-03-07T01:15:44;113162.81;;;-146.65;100.00
57094;BME280;42970;50.996;3.706;2024-03-07T01:18:09;113162.81;;;-146.65;100.00
57094;BME280;42970;50.996;3.706;2024-03-07T01:20:34;113162.81;;;-146.65;100.00
57094;BME280;42970;50.996;3.706;2024-03-07T01:23:00;113162.81;;;-146.65;100.00
57094;BME280;42970;50.996;3.706;2024-03-07T01:25:25;113162.81;;;-146.65;100.00
57094;BME280;42970;50.996;3.706;2024-03-07T01:27:52;113162.81;;;-146.65;100.00
57094;BME280;42970;50.996;3.706;2024-03-07T01:30:17;113162.81;;;-146.65;100.00
57094;BME280;42970;50.996;3.706;2024-03-07T01:32:42;113162.81;;;-146.65;100.00
57094;BME280;42970;50.996;3.706;2024-03-07T01:35:08;113162.81;;;-146.65;100.00
57094;BME280;42970;50.996;3.706;2024-03-07T01:37:33;113162.81;;;-146.65;100.00
57094;BME280;42970;50.996;3.706;2024-03-07T01:39:58;113162.81;;;-146.65;100.00
57094;BME280;42970;50.996;3.706;2024-03-07T01:42:24;113162.81;;;-146.65;100.00
57094;BME280;42970;50.996;3.706;2024-03-07T01:44:50;113162.81;;;-146.65;100.00
57094;BME280;42970;50.996;3.706;2024-03-07T01:47:16;113162.81;;;-146.65;100.00
57094;BME280;42970;50.996;3.706;2024-03-07T01:49:42;113162.81;;;-146.65;100.00
57094;BME280;42970;50.996;3.706;2024-03-07T01:52:08;113162.81;;;-146.65;100.00
57094;BME280;42970;50.996;3.706;2024-03-07T01:54:34;113162.81;;;-146.65;100.00
57094;BME280;42970;50.996;3.706;2024-03-07T01:57:00;113162.81;;;-146.65;100.00
57094;BME280;42970;50.996;3.706;2024-03-07T01:59:26;113162.81;;;-146.65;100.00
57094;BME280;42970;50.996;3.706;2024-03-07T02:01:55;113162.81;;;-146.65;100.00
57094;BME280;42970;50.996;3.706;2024-03-07T02:04:20;113162.81;;;-146.65;100.00
57094;BME280;42970;50.996;3.706;2024-03-07T02:06:45;113162.81;;;-146.65;100.00
57094;BME280;42970;50.996;3.706;2024-03-07T02:09:10;113162.81;;;-146.65;100.00
57094;BME280;42970;50.996;3.706;2024-03-07T02:11:36;113162.81;;;-146.65;100.00
57094;BME280;42970;50.996;3.706;2024-03-07T02:14:01;113162.81;;;-146.65;100.00
57094;BME280;42970;50.996;3.706;2024-03-07T02:16:26;113162.81;;;-146.65;100.00
57094;BME280;42970;50.996;3.706;2024-03-07T02:18:51;113162.81;;;-146.65;100.00
57094;BME280;42970;50.996;3.706;2024-03-07T02:21:17;113162.81;;;-146.65;100.00
57094;BME280;42970;50.996;3.706;2024-03-07T02:23:42;113162.81;;;-146.65;100.00
57094;BME280;42970;50.996;3.706;2024-03-07T02:26:07;113162.81;;;-146.65;100.00
57094;BME280;42970;50.996;3.706;2024-03-07T02:28:33;113162.81;;;-146.65;100.00
57094;BME280;42970;50.996;3.706;2024-03-07T02:30:58;113162.81;;;-146.65;100.00
57094;BME280;42970;50.996;3.706;2024-03-07T02:33:24;113162.81;;;-146.65;100.00
57094;BME280;42970;50.996;3.706;2024-03-07T02:35:49;113162.81;;;-146.65;100.00
57094;BME280;42970;50.996;3.706;2024-03-07T02:38:14;113162.81;;;-146.65;100.00
57094;BME280;42970;50.996;3.706;2024-03-07T02:40:39;113162.81;;;-146.65;100.00
57094;BME280;42970;50.996;3.706;2024-03-07T02:43:05;113162.81;;;-146.65;100.00
57094;BME280;42970;50.996;3.706;2024-03-07T02:45:30;113162.81;;;-146.65;100.00
57094;BME280;42970;50.996;3.706;2024-03-07T02:47:55;113162.81;;;-146.65;100.00
57094;BME280;42970;50.996;3.706;2024-03-07T02:50:21;113162.81;;;-146.65;100.00
57094;BME280;42970;50.996;3.706;2024-03-07T02:52:47;113162.81;;;-146.65;100.00
57094;BME280;42970;50.996;3.706;2024-03-07T02:55:12;113162.81;;;-146.65;100.00
57094;BME280;42970;50.996;3.706;2024-03-07T02:57:38;113162.81;;;-146.65;100.00
57094;BME280;42970;50.996;3.706;2024-03-07T03:00:04;113162.81;;;-146.65;100.00
57094;BME280;42970;50.996;3.706;2024-03-07T03:02:38;113162.81;;;-146.65;100.00
57094;BME280;42970;50.996;3.706;2024-03-07T03:05:04;113162.81;;;-146.65;100.00
57094;BME280;42970;50.996;3.706;2024-03-07T03:07:31;113162.81;;;-146.65;100.00
57094;BME280;42970;50.996;3.706;2024-03-07T03:09:56;113162.81;;;-146.65;100.00
57094;BME280;42970;50.996;3.706;2024-03-07T03:12:21;113162.81;;;-146.65;100.00
57094;BME280;42970;50.996;3.706;2024-03-07T03:14:47;113162.81;;;-146.65;100.00
57094;BME280;42970;50.996;3.706;2024-03-07T03:17:13;113162.81;;;-146.65;100.00
57094;BME280;42970;50.996;3.706;2024-03-07T03:19:39;113162.81;;;-146.65;100.00
57094;BME280;42970;50.996;3.706;2024-03-07T03:22:05;113162.81;;;-146.65;100.00
57094;BME280;42970;50.996;3.706;2024-03-07T03:24:30;113162.81;;;-146.65;100.00
57094;BME280;42970;50.996;3.706;2024-03-07T03:26:55;113162.81;;;-146.65;100.00
57094;BME280;42970;50.996;3.706;2024-03-07T03:29:21;113162.81;;;-146.65;100.00
57094;BME280;42970;50.996;3.706;2024-03-07T03:31:46;113162.81;;;-146.65;100.00
57094;BME280;42970;50.996;3.706;2024-03-07T03:34:11;113162.81;;;-146.65;100.00
57094;BME280;42970;50.996;3.706;2024-03-07T03:36:36;113162.81;;;-146.65;100.00
57094;BME280;42970;50.996;3.706;2024-03-07T03:39:02;113162.81;;;-146.65;100.00
57094;BME280;42970;50.996;3.706;2024-03-07T03:41:27;113162.81;;;-146.65;100.00
57094;BME280;42970;50.996;3.706;2024-03-07T03:43:52;113162.81;;;-146.65;100.00
57094;BME280;42970;50.996;3.706;2024-03-07T03:46:18;113162.81;;;-146.65;100.00
57094;BME280;42970;50.996;3.706;2024-03-07T03:48:43;113162.81;;;-146.65;100.00
57094;BME280;42970;50.996;3.706;2024-03-07T03:51:08;113162.81;;;-146.65;100.00
57094;BME280;42970;50.996;3.706;2024-03-07T03:53:34;113162.81;;;-146.65;100.00
57094;BME280;42970;50.996;3.706;2024-03-07T03:55:59;113162.81;;;-146.65;100.00
57094;BME280;42970;50.996;3.706;2024-03-07T03:58:25;113162.81;;;-146.65;100.00
57094;BME280;42970;50.996;3.706;2024-03-07T04:00:50;113162.81;;;-146.65;100.00
57094;BME280;42970;50.996;3.706;2024-03-07T04:03:16;113162.81;;;-146.65;100.00
57094;BME280;42970;50.996;3.706;2024-03-07T04:05:41;113162.81;;;-146.65;100.00
57094;BME280;42970;50.996;3.706;2024-03-07T04:08:07;113162.81;;;-146.65;100.00
57094;BME280;42970;50.996;3.706;2024-03-07T04:10:32;113162.81;;;-146.65;100.00
57094;BME280;42970;50.996;3.706;2024-03-07T04:12:58;113162.81;;;-146.65;100.00
57094;BME280;42970;50.996;3.706;2024-03-07T04:15:24;113162.81;;;-146.65;100.00
57094;BME280;42970;50.996;3.706;2024-03-07T04:17:51;113162.81;;;-146.65;100.00
57094;BME280;42970;50.996;3.706;2024-03-07T04:20:17;113162.81;;;-146.65;100.00
57094;BME280;42970;50.996;3.706;2024-03-07T04:22:42;113162.81;;;-146.65;100.00
57094;BME280;42970;50.996;3.706;2024-03-07T04:25:07;113162.81;;;-146.65;100.00
57094;BME280;42970;50.996;3.706;2024-03-07T04:27:33;113162.81;;;-146.65;100.00
57094;BME280;42970;50.996;3.706;2024-03-07T04:30:02;113162.81;;;-146.65;100.00
57094;BME280;42970;50.996;3.706;2024-03-07T04:32:28;113162.81;;;-146.65;100.00
57094;BME280;42970;50.996;3.706;2024-03-07T04:34:54;113162.81;;;-146.65;100.00
57094;BME280;42970;50.996;3.706;2024-03-07T04:37:19;113162.81;;;-146.65;100.00
57094;BME280;42970;50.996;3.706;2024-03-07T04:39:44;113162.81;;;-146.65;100.00
57094;BME280;42970;50.996;3.706;2024-03-07T04:42:10;113162.81;;;-146.65;100.00
57094;BME280;42970;50.996;3.706;2024-03-07T04:44:36;113162.81;;;-146.65;100.00
57094;BME280;42970;50.996;3.706;2024-03-07T04:47:02;113162.81;;;-146.65;100.00
57094;BME280;42970;50.996;3.706;2024-03-07T04:49:28;113162.81;;;-146.65;100.00
57094;BME280;42970;50.996;3.706;2024-03-07T04:51:54;113162.81;;;-146.65;100.00
57094;BME280;42970;50.996;3.706;2024-03-07T04:54:20;113162.81;;;-146.65;100.00
57094;BME280;42970;50.996;3.706;2024-03-07T04:56:46;113162.81;;;-146.65;100.00
57094;BME280;42970;50.996;3.706;2024-03-07T04:59:12;113162.81;;;-146.65;100.00
57094;BME280;42970;50.996;3.706;2024-03-07T05:01:37;113162.81;;;-146.65;100.00
57094;BME280;42970;50.996;3.706;2024-03-07T05:04:03;113162.81;;;-146.65;100.00
57094;BME280;42970;50.996;3.706;2024-03-07T05:06:28;113162.81;;;-146.65;100.00
57094;BME280;42970;50.996;3.706;2024-03-07T05:08:54;113162.81;;;-146.65;100.00
57094;BME280;42970;50.996;3.706;2024-03-07T05:11:19;113162.81;;;-146.65;100.00
57094;BME280;42970;50.996;3.706;2024-03-07T05:13:44;113162.81;;;-146.65;100.00
57094;BME280;42970;50.996;3.706;2024-03-07T05:16:09;113162.81;;;-146.65;100.00
57094;BME280;42970;50.996;3.706;2024-03-07T05:18:35;113162.81;;;-146.65;100.00
57094;BME280;42970;50.996;3.706;2024-03-07T05:21:00;113162.81;;;-146.65;100.00
57094;BME280;42970;50.996;3.706;2024-03-07T05:23:45;113162.81;;;-146.65;100.00
57094;BME280;42970;50.996;3.706;2024-03-07T05:26:10;113162.81;;;-146.65;100.00
57094;BME280;42970;50.996;3.706;2024-03-07T05:28:36;113162.81;;;-146.65;100.00
57094;BME280;42970;50.996;3.706;2024-03-07T05:31:01;113162.81;;;-146.65;100.00
57094;BME280;42970;50.996;3.706;2024-03-07T05:33:29;113162.81;;;-146.65;100.00
57094;BME280;42970;50.996;3.706;2024-03-07T05:35:54;113162.81;;;-146.65;100.00
57094;BME280;42970;50.996;3.706;2024-03-07T05:38:27;113162.81;;;-146.65;100.00
57094;BME280;42970;50.996;3.706;2024-03-07T05:40:53;113162.81;;;-146.65;100.00
57094;BME280;42970;50.996;3.706;2024-03-07T05:43:18;113162.81;;;-146.65;100.00
57094;BME280;42970;50.996;3.706;2024-03-07T05:45:44;113162.81;;;-146.65;100.00
57094;BME280;42970;50.996;3.706;2024-03-07T05:48:14;113162.81;;;-146.65;100.00
57094;BME280;42970;50.996;3.706;2024-03-07T05:50:39;113162.81;;;-146.65;100.00
57094;BME280;42970;50.996;3.706;2024-03-07T05:53:04;113162.81;;;-146.65;100.00
57094;BME280;42970;50.996;3.706;2024-03-07T05:55:32;113162.81;;;-146.65;100.00
57094;BME280;42970;50.996;3.706;2024-03-07T05:57:58;113162.81;;;-146.65;100.00
57094;BME280;42970;50.996;3.706;2024-03-07T06:00:23;113162.81;;;-146.65;100.00
57094;BME280;42970;50.996;3.706;2024-03-07T06:02:52;113162.81;;;-146.65;100.00
57094;BME280;42970;50.996;3.706;2024-03-07T06:05:18;113162.81;;;-146.65;100.00
57094;BME280;42970;50.996;3.706;2024-03-07T06:07:44;113162.81;;;-146.65;100.00
57094;BME280;42970;50.996;3.706;2024-03-07T06:10:10;113162.81;;;-146.65;100.00
57094;BME280;42970;50.996;3.706;2024-03-07T06:12:36;113162.81;;;-146.65;100.00
57094;BME280;42970;50.996;3.706;2024-03-07T06:15:02;113162.81;;;-146.65;100.00
57094;BME280;42970;50.996;3.706;2024-03-07T06:17:28;113162.81;;;-146.65;100.00
57094;BME280;42970;50.996;3.706;2024-03-07T06:19:53;113162.81;;;-146.65;100.00
57094;BME280;42970;50.996;3.706;2024-03-07T06:22:19;113162.81;;;-146.65;100.00
57094;BME280;42970;50.996;3.706;2024-03-07T06:24:44;113162.81;;;-146.65;100.00
57094;BME280;42970;50.996;3.706;2024-03-07T06:27:09;113162.81;;;-146.65;100.00
57094;BME280;42970;50.996;3.706;2024-03-07T06:29:51;113162.81;;;-146.65;100.00
57094;BME280;42970;50.996;3.706;2024-03-07T06:32:18;113162.81;;;-146.65;100.00
57094;BME280;42970;50.996;3.706;2024-03-07T06:34:43;113162.81;;;-146.65;100.00
57094;BME280;42970;50.996;3.706;2024-03-07T06:37:08;113162.81;;;-146.65;100.00
57094;BME280;42970;50.996;3.706;2024-03-07T06:39:34;113162.81;;;-146.65;100.00
57094;BME280;42970;50.996;3.706;2024-03-07T06:42:00;113162.81;;;-146.65;100.00
57094;BME280;42970;50.996;3.706;2024-03-07T06:44:25;113162.81;;;-146.65;100.00
57094;BME280;42970;50.996;3.706;2024-03-07T06:46:51;113162.81;;;-146.65;100.00
57094;BME280;42970;50.996;3.706;2024-03-07T06:49:17;113162.81;;;-146.65;100.00
57094;BME280;42970;50.996;3.706;2024-03-07T06:51:42;113162.81;;;-146.65;100.00
57094;BME280;42970;50.996;3.706;2024-03-07T06:54:07;113162.81;;;-146.65;100.00
57094;BME280;42970;50.996;3.706;2024-03-07T06:56:33;113162.81;;;-146.65;100.00
57094;BME280;42970;50.996;3.706;2024-03-07T06:58:58;113162.81;;;-146.65;100.00
57094;BME280;42970;50.996;3.706;2024-03-07T07:01:24;113162.81;;;-146.65;100.00
57094;BME280;42970;50.996;3.706;2024-03-07T07:03:49;113162.81;;;-146.65;100.00
57094;BME280;42970;50.996;3.706;2024-03-07T07:06:14;113162.81;;;-146.65;100.00
57094;BME280;42970;50.996;3.706;2024-03-07T07:08:40;113162.81;;;-146.65;100.00
57094;BME280;42970;50.996;3.706;2024-03-07T07:11:05;113162.81;;;-146.65;100.00
57094;BME280;42970;50.996;3.706;2024-03-07T07:13:30;113162.81;;;-146.65;100.00
57094;BME280;42970;50.996;3.706;2024-03-07T07:15:56;113162.81;;;-146.65;100.00
57094;BME280;42970;50.996;3.706;2024-03-07T07:18:21;113162.81;;;-146.65;100.00
57094;BME280;42970;50.996;3.706;2024-03-07T07:20:48;113162.81;;;-146.65;100.00
57094;BME280;42970;50.996;3.706;2024-03-07T07:23:14;113162.81;;;-146.65;100.00
57094;BME280;42970;50.996;3.706;2024-03-07T07:25:39;113162.81;;;-146.65;100.00
57094;BME280;42970;50.996;3.706;2024-03-07T07:28:05;113162.81;;;-146.65;100.00
57094;BME280;42970;50.996;3.706;2024-03-07T07:30:32;113162.81;;;-146.65;100.00
57094;BME280;42970;50.996;3.706;2024-03-07T07:32:58;113162.81;;;-146.65;100.00
57094;BME280;42970;50.996;3.706;2024-03-07T07:35:23;113162.81;;;-146.65;100.00
57094;BME280;42970;50.996;3.706;2024-03-07T07:37:50;113162.81;;;-146.65;100.00
57094;BME280;42970;50.996;3.706;2024-03-07T07:40:20;113162.81;;;-146.65;100.00
57094;BME280;42970;50.996;3.706;2024-03-07T07:42:51;113162.81;;;-146.65;100.00
57094;BME280;42970;50.996;3.706;2024-03-07T07:45:17;113162.81;;;-146.65;100.00
57094;BME280;42970;50.996;3.706;2024-03-07T07:47:43;113162.81;;;-146.65;100.00
57094;BME280;42970;50.996;3.706;2024-03-07T07:50:12;113162.81;;;-146.65;100.00
57094;BME280;42970;50.996;3.706;2024-03-07T07:52:42;113162.81;;;-146.65;100.00
57094;BME280;42970;50.996;3.706;2024-03-07T07:55:08;113162.81;;;-146.65;100.00
57094;BME280;42970;50.996;3.706;2024-03-07T07:57:40;113162.81;;;-146.65;100.00
57094;BME280;42970;50.996;3.706;2024-03-07T08:00:05;113162.81;;;-146.65;100.00
57094;BME280;42970;50.996;3.706;2024-03-07T08:02:33;113162.81;;;-146.65;100.00
57094;BME280;42970;50.996;3.706;2024-03-07T08:04:59;113162.81;;;-146.65;100.00
57094;BME280;42970;50.996;3.706;2024-03-07T08:07:26;113162.81;;;-146.65;100.00
57094;BME280;42970;50.996;3.706;2024-03-07T08:09:51;113162.81;;;-146.65;100.00
57094;BME280;42970;50.996;3.706;2024-03-07T08:12:16;113162.81;;;-146.65;100.00
57094;BME280;42970;50.996;3.706;2024-03-07T08:14:41;113162.81;;;-146.65;100.00
57094;BME280;42970;50.996;3.706;2024-03-07T08:17:08;113162.81;;;-146.65;100.00
57094;BME280;42970;50.996;3.706;2024-03-07T08:19:33;113162.81;;;-146.65;100.00
57094;BME280;42970;50.996;3.706;2024-03-07T08:21:59;113162.81;;;-146.65;100.00
57094;BME280;42970;50.996;3.706;2024-03-07T08:24:24;113162.81;;;-146.65;100.00
57094;BME280;42970;50.996;3.706;2024-03-07T08:26:50;113162.81;;;-146.65;100.00
57094;BME280;42970;50.996;3.706;2024-03-07T08:29:15;113162.81;;;-146.65;100.00
57094;BME280;42970;50.996;3.706;2024-03-07T08:31:41;113162.81;;;-146.65;100.00
57094;BME280;42970;50.996;3.706;2024-03-07T08:34:08;113162.81;;;-146.65;100.00
57094;BME280;42970;50.996;3.706;2024-03-07T08:36:33;113162.81;;;-146.65;100.00
57094;BME280;42970;50.996;3.706;2024-03-07T08:38:58;113162.81;;;-146.65;100.00
57094;BME280;42970;50.996;3.706;2024-03-07T08:41:23;113162.81;;;-146.65;100.00
57094;BME280;42970;50.996;3.706;2024-03-07T08:43:49;113162.81;;;-146.65;100.00
57094;BME280;42970;50.996;3.706;2024-03-07T08:46:14;113162.81;;;-146.65;100.00
57094;BME280;42970;50.996;3.706;2024-03-07T08:48:39;113162.81;;;-146.65;100.00
57094;BME280;42970;50.996;3.706;2024-03-07T08:51:05;113162.81;;;-146.65;100.00
57094;BME280;42970;50.996;3.706;2024-03-07T08:53:31;113162.81;;;-146.65;100.00
57094;BME280;42970;50.996;3.706;2024-03-07T08:55:56;113162.81;;;-146.65;100.00
57094;BME280;42970;50.996;3.706;2024-03-07T08:58:23;113162.81;;;-146.65;100.00
57094;BME280;42970;50.996;3.706;2024-03-07T09:00:49;113162.81;;;-146.65;100.00
57094;BME280;42970;50.996;3.706;2024-03-07T09:03:17;113162.81;;;-146.65;100.00
57094;BME280;42970;50.996;3.706;2024-03-07T09:05:43;113162.81;;;-146.65;100.00
57094;BME280;42970;50.996;3.706;2024-03-07T09:08:09;113162.81;;;-146.65;100.00
57094;BME280;42970;50.996;3.706;2024-03-07T09:10:34;113162.81;;;-146.65;100.00
57094;BME280;42970;50.996;3.706;2024-03-07T09:12:59;113162.81;;;-146.65;100.00
57094;BME280;42970;50.996;3.706;2024-03-07T09:15:25;113162.81;;;-146.65;100.00
57094;BME280;42970;50.996;3.706;2024-03-07T09:17:50;113162.81;;;-146.65;100.00
57094;BME280;42970;50.996;3.706;2024-03-07T09:20:16;113162.81;;;-146.65;100.00
57094;BME280;42970;50.996;3.706;2024-03-07T09:22:44;113162.81;;;-146.65;100.00
57094;BME280;42970;50.996;3.706;2024-03-07T09:25:10;113162.81;;;-146.65;100.00
57094;BME280;42970;50.996;3.706;2024-03-07T09:27:37;113162.81;;;-146.65;100.00
57094;BME280;42970;50.996;3.706;2024-03-07T09:30:04;113162.81;;;-146.65;100.00
57094;BME280;42970;50.996;3.706;2024-03-07T09:32:30;113162.81;;;-146.65;100.00
57094;BME280;42970;50.996;3.706;2024-03-07T09:34:58;113162.81;;;-146.65;100.00
57094;BME280;42970;50.996;3.706;2024-03-07T09:37:23;113162.81;;;-146.65;100.00
57094;BME280;42970;50.996;3.706;2024-03-07T09:39:48;113162.81;;;-146.65;100.00
57094;BME280;42970;50.996;3.706;2024-03-07T09:42:14;113162.81;;;-146.65;100.00
57094;BME280;42970;50.996;3.706;2024-03-07T09:44:42;113162.81;;;-146.65;100.00
57094;BME280;42970;50.996;3.706;2024-03-07T09:47:08;113162.81;;;-146.65;100.00
57094;BME280;42970;50.996;3.706;2024-03-07T09:49:36;113162.81;;;-146.65;100.00
57094;BME280;42970;50.996;3.706;2024-03-07T09:52:03;113162.81;;;-146.65;100.00
57094;BME280;42970;50.996;3.706;2024-03-07T09:54:29;113162.81;;;-146.65;100.00
57094;BME280;42970;50.996;3.706;2024-03-07T09:56:54;113162.81;;;-146.65;100.00
57094;BME280;42970;50.996;3.706;2024-03-07T09:59:22;113162.81;;;-146.65;100.00
57094;BME280;42970;50.996;3.706;2024-03-07T10:01:51;113162.81;;;-146.65;100.00
57094;BME280;42970;50.996;3.706;2024-03-07T10:04:22;113162.81;;;-146.65;100.00
57094;BME280;42970;50.996;3.706;2024-03-07T10:06:53;113162.81;;;-146.65;100.00
57094;BME280;42970;50.996;3.706;2024-03-07T10:09:20;113162.81;;;-146.65;100.00
57094;BME280;42970;50.996;3.706;2024-03-07T10:11:55;113162.81;;;-146.65;100.00
57094;BME280;42970;50.996;3.706;2024-03-07T10:14:20;113162.81;;;-146.65;100.00
57094;BME280;42970;50.996;3.706;2024-03-07T10:16:45;113162.81;;;-146.65;100.00
57094;BME280;42970;50.996;3.706;2024-03-07T10:19:11;113162.81;;;-146.65;100.00
57094;BME280;42970;50.996;3.706;2024-03-07T10:21:36;113162.81;;;-146.65;100.00
57094;BME280;42970;50.996;3.706;2024-03-07T10:24:05;113162.81;;;-146.65;90.69
57094;BME280;42970;50.996;3.706;2024-03-07T10:26:34;113162.81;;;-146.65;91.28
57094;BME280;42970;50.996;3.706;2024-03-07T10:29:00;113162.81;;;-146.65;89.99
57094;BME280;42970;50.996;3.706;2024-03-07T10:31:29;113162.81;;;-146.65;89.11
57094;BME280;42970;50.996;3.706;2024-03-07T10:33:58;113162.81;;;-146.65;90.03
57094;BME280;42970;50.996;3.706;2024-03-07T10:36:23;113162.81;;;-146.65;82.27
57094;BME280;42970;50.996;3.706;2024-03-07T10:38:50;113162.81;;;-146.65;78.39
57094;BME280;42970;50.996;3.706;2024-03-07T10:41:15;113162.81;;;-146.65;78.70
57094;BME280;42970;50.996;3.706;2024-03-07T10:43:41;113162.81;;;-146.65;81.50
57094;BME280;42970;50.996;3.706;2024-03-07T10:46:08;113162.81;;;-146.65;79.27
57094;BME280;42970;50.996;3.706;2024-03-07T10:48:37;113162.81;;;-146.65;79.82
57094;BME280;42970;50.996;3.706;2024-03-07T10:54:08;113162.81;;;-146.65;81.36
57094;BME280;42970;50.996;3.706;2024-03-07T10:59:30;113162.81;;;-146.65;77.48
57094;BME280;42970;50.996;3.706;2024-03-07T11:04:37;113162.81;;;-146.65;75.81
57094;BME280;42970;50.996;3.706;2024-03-07T11:07:03;113162.81;;;-146.65;75.78
57094;BME280;42970;50.996;3.706;2024-03-07T11:09:28;113162.81;;;-146.65;74.20
57094;BME280;42970;50.996;3.706;2024-03-07T11:11:58;113162.81;;;-146.65;73.95
57094;BME280;42970;50.996;3.706;2024-03-07T11:14:25;113162.81;;;-146.65;73.89
57094;BME280;42970;50.996;3.706;2024-03-07T11:16:51;113162.81;;;-146.65;70.51
57094;BME280;42970;50.996;3.706;2024-03-07T11:19:20;113162.81;;;-146.65;68.50
57094;BME280;42970;50.996;3.706;2024-03-07T11:21:47;113162.81;;;-146.65;69.72
57094;BME280;42970;50.996;3.706;2024-03-07T11:24:23;113162.81;;;-146.65;69.64
57094;BME280;42970;50.996;3.706;2024-03-07T11:26:48;113162.81;;;-146.65;67.74
57094;BME280;42970;50.996;3.706;2024-03-07T11:31:58;113162.81;;;-146.65;66.25
57094;BME280;42970;50.996;3.706;2024-03-07T11:34:23;113162.81;;;-146.65;63.14
57094;BME280;42970;50.996;3.706;2024-03-07T11:36:54;113162.81;;;-146.65;60.55
57094;BME280;42970;50.996;3.706;2024-03-07T11:42:18;113162.81;;;-146.65;64.88
57094;BME280;42970;50.996;3.706;2024-03-07T11:44:44;113162.81;;;-146.65;65.93
57094;BME280;42970;50.996;3.706;2024-03-07T11:47:10;113162.81;;;-146.65;71.39
57094;BME280;42970;50.996;3.706;2024-03-07T11:49:36;113162.81;;;-146.65;67.22
57094;BME280;42970;50.996;3.706;2024-03-07T11:52:02;113162.81;;;-146.65;62.97
57094;BME280;42970;50.996;3.706;2024-03-07T11:54:30;113162.81;;;-146.65;62.63
57094;BME280;42970;50.996;3.706;2024-03-07T11:56:56;113162.81;;;-146.65;62.79
57094;BME280;42970;50.996;3.706;2024-03-07T11:59:22;113162.81;;;-146.65;63.56
57094;BME280;42970;50.996;3.706;2024-03-07T12:01:48;113162.81;;;-146.65;60.79
57094;BME280;42970;50.996;3.706;2024-03-07T12:04:14;113162.81;;;-146.65;57.24
57094;BME280;42970;50.996;3.706;2024-03-07T12:06:49;113162.81;;;-146.65;57.88
57094;BME280;42970;50.996;3.706;2024-03-07T12:09:14;113162.81;;;-146.65;54.58
57094;BME280;42970;50.996;3.706;2024-03-07T12:11:49;113162.81;;;-146.65;55.68
57094;BME280;42970;50.996;3.706;2024-03-07T12:14:18;113162.81;;;-146.65;56.01
57094;BME280;42970;50.996;3.706;2024-03-07T12:16:43;113162.81;;;-146.65;53.20
57094;BME280;42970;50.996;3.706;2024-03-07T12:19:08;113162.81;;;-146.65;57.05
57094;BME280;42970;50.996;3.706;2024-03-07T12:21:36;113162.81;;;-146.65;56.32
57094;BME280;42970;50.996;3.706;2024-03-07T12:24:10;113162.81;;;-146.65;52.89
57094;BME280;42970;50.996;3.706;2024-03-07T12:26:36;113162.81;;;-146.65;52.49
57094;BME280;42970;50.996;3.706;2024-03-07T12:29:11;113162.81;;;-146.65;52.95
57094;BME280;42970;50.996;3.706;2024-03-07T12:31:40;113162.81;;;-146.65;57.95